createdAt,value
2018-08-19T00:01:01.227Z,25.60
2018-08-19T00:03:34.134Z,25.20
2018-08-19T00:06:06.364Z,25.20
2018-08-19T00:08:38.701Z,25.20
2018-08-19T00:11:11.664Z,25.40
2018-08-19T00:13:43.857Z,25.50
2018-08-19T00:16:16.165Z,25.30
2018-08-19T00:18:48.452Z,25.40
2018-08-19T00:21:20.683Z,25.10
2018-08-19T00:23:52.958Z,25.00
2018-08-19T00:26:24.821Z,25.00
2018-08-19T00:28:56.992Z,25.00
2018-08-19T00:31:29.160Z,25.00
2018-08-19T00:34:01.295Z,24.90
2018-08-19T00:36:37.316Z,24.70
2018-08-19T00:39:11.194Z,24.50
2018-08-19T00:41:43.472Z,24.50
2018-08-19T00:44:15.618Z,24.70
2018-08-19T00:46:47.772Z,24.60
2018-08-19T00:49:21.365Z,24.60
2018-08-19T00:52:01.453Z,24.80
2018-08-19T00:54:34.530Z,24.60
2018-08-19T00:57:09.455Z,24.60
2018-08-19T00:59:41.371Z,24.50
2018-08-19T01:02:15.735Z,24.40
2018-08-19T01:04:47.755Z,24.30
2018-08-19T01:07:20.127Z,24.40
2018-08-19T01:09:53.353Z,24.40
2018-08-19T01:12:26.118Z,24.30
2018-08-19T01:14:58.117Z,24.20
2018-08-19T01:17:42.524Z,23.90
2018-08-19T01:20:23.060Z,23.90
2018-08-19T01:22:55.828Z,24.00
2018-08-19T01:25:27.988Z,24.30
2018-08-19T01:28:00.224Z,24.30
2018-08-19T01:30:32.305Z,24.30
2018-08-19T01:33:04.615Z,24.10
2018-08-19T01:35:42.865Z,24.20
2018-08-19T01:38:15.130Z,24.30
2018-08-19T01:40:47.587Z,24.10
2018-08-19T01:43:19.504Z,23.90
2018-08-19T01:45:51.567Z,23.90
2018-08-19T01:48:24.988Z,24.00
2018-08-19T01:50:58.117Z,23.90
2018-08-19T01:53:30.418Z,24.10
2018-08-19T01:56:02.362Z,24.10
2018-08-19T01:58:38.391Z,24.00
2018-08-19T02:01:10.988Z,23.90
2018-08-19T02:03:43.025Z,23.90
2018-08-19T02:06:15.342Z,23.80
2018-08-19T02:08:48.034Z,23.90
2018-08-19T02:11:32.461Z,23.80
2018-08-19T02:14:05.446Z,23.90
2018-08-19T02:16:39.349Z,24.10
2018-08-19T02:19:12.641Z,24.00
2018-08-19T02:21:45.380Z,24.00
2018-08-19T02:24:18.058Z,23.90
2018-08-19T02:26:51.622Z,24.10
2018-08-19T02:29:37.179Z,24.00
2018-08-19T02:32:10.726Z,24.00
2018-08-19T02:34:44.298Z,24.00
2018-08-19T02:37:19.515Z,24.00
2018-08-19T02:39:52.821Z,23.90
2018-08-19T02:42:31.014Z,24.00
2018-08-19T02:45:09.796Z,24.10
2018-08-19T02:47:43.743Z,24.10
2018-08-19T02:50:15.856Z,24.10
2018-08-19T02:52:48.199Z,24.10
2018-08-19T02:55:20.105Z,24.00
2018-08-19T02:57:54.321Z,24.00
2018-08-19T03:00:26.942Z,24.00
2018-08-19T03:03:00.841Z,23.90
2018-08-19T03:05:33.867Z,23.90
2018-08-19T03:08:06.738Z,23.80
2018-08-19T03:10:38.886Z,23.80
2018-08-19T03:13:10.928Z,23.90
2018-08-19T03:15:43.043Z,24.00
2018-08-19T03:18:15.646Z,23.90
2018-08-19T03:20:47.658Z,24.00
2018-08-19T03:23:20.376Z,23.90
2018-08-19T03:25:52.546Z,23.90
2018-08-19T03:28:24.909Z,23.90
2018-08-19T03:31:04.618Z,23.90
2018-08-19T03:33:35.030Z,24.00
2018-08-19T03:36:05.414Z,24.00
2018-08-19T03:38:35.977Z,23.90
2018-08-19T03:41:06.372Z,23.90
2018-08-19T03:43:37.204Z,24.00
2018-08-19T03:46:13.340Z,23.90
2018-08-19T03:48:43.702Z,24.00
2018-08-19T03:51:15.753Z,23.90
2018-08-19T03:53:46.062Z,23.90
2018-08-19T03:56:30.437Z,23.80
2018-08-19T03:59:03.607Z,23.90
2018-08-19T04:01:40.732Z,23.90
2018-08-19T04:04:11.734Z,23.80
2018-08-19T04:06:44.137Z,23.70
2018-08-19T04:09:14.401Z,23.70
2018-08-19T04:11:48.022Z,23.70
2018-08-19T04:14:27.784Z,23.60
2018-08-19T04:17:00.543Z,23.50
2018-08-19T04:19:31.417Z,23.50
2018-08-19T04:22:03.383Z,23.50
2018-08-19T04:24:35.648Z,23.60
2018-08-19T04:27:06.895Z,23.70
2018-08-19T04:29:37.587Z,23.70
2018-08-19T04:32:10.026Z,23.80
2018-08-19T04:34:40.866Z,23.70
2018-08-19T04:37:11.778Z,23.60
2018-08-19T04:39:42.210Z,23.50
2018-08-19T04:42:13.682Z,23.50
2018-08-19T04:44:44.384Z,23.30
2018-08-19T04:47:22.098Z,23.40
2018-08-19T04:49:53.804Z,23.40
2018-08-19T04:52:25.285Z,23.60
2018-08-19T04:54:57.527Z,23.40
2018-08-19T04:57:27.867Z,23.40
2018-08-19T04:59:58.355Z,23.40
2018-08-19T05:02:28.960Z,23.30
2018-08-19T05:04:59.692Z,23.30
2018-08-19T05:07:30.122Z,23.30
2018-08-19T05:10:00.608Z,23.30
2018-08-19T05:12:31.089Z,23.30
2018-08-19T05:15:01.556Z,23.20
2018-08-19T05:17:31.883Z,22.90
2018-08-19T05:20:12.814Z,22.80
2018-08-19T05:22:45.268Z,22.80
2018-08-19T05:25:17.747Z,22.80
2018-08-19T05:28:08.412Z,22.80
2018-08-19T05:30:40.855Z,22.90
2018-08-19T05:33:13.826Z,22.90
2018-08-19T05:35:45.996Z,22.90
2018-08-19T05:38:18.531Z,22.90
2018-08-19T05:41:05.257Z,22.80
2018-08-19T05:43:37.251Z,22.80
2018-08-19T05:46:09.726Z,22.80
2018-08-19T05:48:42.254Z,22.90
2018-08-19T05:51:14.264Z,23.00
2018-08-19T05:53:50.996Z,23.00
2018-08-19T05:56:23.175Z,22.80
2018-08-19T05:58:55.790Z,22.70
2018-08-19T06:01:33.844Z,22.60
2018-08-19T06:04:06.143Z,22.60
2018-08-19T06:06:38.521Z,22.60
2018-08-19T06:09:10.628Z,22.50
2018-08-19T06:11:42.801Z,22.50
2018-08-19T06:14:14.945Z,22.50
2018-08-19T06:16:47.282Z,22.40
2018-08-19T06:19:19.767Z,22.50
2018-08-19T06:21:52.460Z,22.50
2018-08-19T06:24:27.054Z,22.50
2018-08-19T06:26:59.427Z,22.60
2018-08-19T06:29:47.306Z,22.50
2018-08-19T06:32:24.587Z,22.50
2018-08-19T06:34:56.823Z,22.50
2018-08-19T06:37:28.992Z,22.50
2018-08-19T06:40:01.105Z,22.50
2018-08-19T06:42:34.310Z,22.50
2018-08-19T06:45:06.617Z,22.40
2018-08-19T06:47:38.999Z,22.40
2018-08-19T06:50:22.295Z,22.40
2018-08-19T06:52:54.407Z,22.40
2018-08-19T06:55:26.482Z,22.30
2018-08-19T06:58:00.964Z,22.30
2018-08-19T07:00:33.787Z,22.30
2018-08-19T07:03:07.782Z,22.20
2018-08-19T07:05:39.794Z,22.20
2018-08-19T07:08:12.249Z,22.20
2018-08-19T07:10:44.838Z,22.10
2018-08-19T07:13:17.931Z,22.00
2018-08-19T07:15:50.159Z,21.90
2018-08-19T07:18:22.565Z,21.90
2018-08-19T07:20:54.878Z,21.80
2018-08-19T07:23:27.327Z,21.80
2018-08-19T07:25:59.500Z,21.80
2018-08-19T07:28:32.169Z,21.80
2018-08-19T07:31:04.249Z,21.90
2018-08-19T07:33:36.367Z,21.90
2018-08-19T07:36:08.573Z,21.90
2018-08-19T07:38:40.586Z,21.90
2018-08-19T07:41:12.878Z,21.90
2018-08-19T07:43:45.082Z,21.80
2018-08-19T07:46:17.121Z,21.70
2018-08-19T07:48:49.343Z,21.70
2018-08-19T07:51:21.486Z,21.70
2018-08-19T07:53:53.923Z,21.70
2018-08-19T07:56:26.172Z,21.70
2018-08-19T07:59:05.737Z,21.60
2018-08-19T08:01:39.131Z,21.70
2018-08-19T08:04:11.743Z,21.60
2018-08-19T08:06:43.910Z,21.60
2018-08-19T08:09:16.954Z,21.30
2018-08-19T08:11:48.971Z,21.20
2018-08-19T08:14:21.242Z,21.10
2018-08-19T08:16:57.214Z,20.80
2018-08-19T08:19:29.620Z,20.80
2018-08-19T08:22:06.744Z,20.70
2018-08-19T08:24:39.953Z,20.70
2018-08-19T08:27:12.185Z,20.70
2018-08-19T08:29:44.745Z,20.80
2018-08-19T08:32:17.163Z,20.80
2018-08-19T08:34:49.125Z,20.50
2018-08-19T08:37:21.099Z,20.30
2018-08-19T08:39:58.991Z,20.50
2018-08-19T08:42:35.757Z,20.40
2018-08-19T08:45:07.971Z,20.30
2018-08-19T08:47:40.128Z,20.30
2018-08-19T08:50:13.425Z,20.50
2018-08-19T08:52:46.909Z,20.60
2018-08-19T08:55:19.255Z,20.60
2018-08-19T08:57:51.571Z,20.60
2018-08-19T09:00:23.586Z,20.50
2018-08-19T09:02:56.037Z,20.40
2018-08-19T09:05:28.070Z,20.50
2018-08-19T09:08:02.492Z,20.50
2018-08-19T09:10:34.703Z,20.60
2018-08-19T09:13:07.122Z,20.60
2018-08-19T09:15:39.159Z,20.60
2018-08-19T09:18:11.668Z,20.60
2018-08-19T09:20:43.587Z,20.70
2018-08-19T09:23:15.720Z,20.60
2018-08-19T09:25:48.254Z,20.80
2018-08-19T09:28:20.499Z,20.90
2018-08-19T09:30:52.505Z,20.80
2018-08-19T09:33:24.761Z,21.00
2018-08-19T09:35:56.720Z,21.10
2018-08-19T09:38:28.938Z,21.10
2018-08-19T09:41:00.869Z,20.90
2018-08-19T09:43:33.058Z,20.80
2018-08-19T09:46:05.057Z,20.90
2018-08-19T09:48:38.307Z,20.80
2018-08-19T09:51:14.988Z,20.50
2018-08-19T09:53:46.904Z,20.20
2018-08-19T09:56:22.982Z,20.20
2018-08-19T09:58:59.439Z,20.10
2018-08-19T10:01:36.050Z,20.10
2018-08-19T10:04:21.189Z,20.00
2018-08-19T10:07:00.594Z,20.20
2018-08-19T10:09:32.626Z,20.10
2018-08-19T10:12:04.534Z,20.20
2018-08-19T10:14:36.635Z,20.20
2018-08-19T10:17:08.805Z,20.20
2018-08-19T10:19:41.229Z,20.20
2018-08-19T10:22:13.337Z,20.30
2018-08-19T10:24:46.568Z,20.40
2018-08-19T10:27:18.624Z,20.50
2018-08-19T10:29:50.799Z,20.60
2018-08-19T10:32:23.431Z,20.60
2018-08-19T10:34:55.972Z,20.60
2018-08-19T10:37:28.053Z,20.60
2018-08-19T10:40:00.176Z,20.50
2018-08-19T10:42:32.740Z,20.50
2018-08-19T10:45:12.034Z,20.70
2018-08-19T10:47:44.452Z,20.70
2018-08-19T10:50:16.442Z,20.80
2018-08-19T10:52:48.585Z,21.00
2018-08-19T10:55:20.707Z,21.00
2018-08-19T10:57:53.022Z,21.10
2018-08-19T11:00:31.220Z,21.00
2018-08-19T11:03:24.458Z,20.90
2018-08-19T11:05:58.061Z,20.90
2018-08-19T11:08:30.056Z,20.60
2018-08-19T11:11:03.047Z,20.30
2018-08-19T11:13:35.039Z,20.10
2018-08-19T11:16:07.222Z,20.00
2018-08-19T11:18:46.845Z,20.00
2018-08-19T11:21:28.386Z,20.10
2018-08-19T11:24:01.224Z,20.30
2018-08-19T11:26:33.403Z,20.30
2018-08-19T11:29:07.356Z,20.20
2018-08-19T11:31:39.785Z,20.10
2018-08-19T11:34:11.897Z,20.10
2018-08-19T11:36:44.754Z,20.10
2018-08-19T11:39:18.101Z,20.20
2018-08-19T11:41:50.212Z,20.00
2018-08-19T11:44:22.420Z,20.00
2018-08-19T11:46:54.744Z,20.00
2018-08-19T11:49:26.713Z,20.00
2018-08-19T11:52:00.918Z,19.90
2018-08-19T11:54:33.717Z,19.90
2018-08-19T11:57:11.712Z,20.00
2018-08-19T11:59:45.817Z,19.90
2018-08-19T12:02:24.686Z,19.90
2018-08-19T12:04:57.898Z,19.90
2018-08-19T12:07:30.489Z,19.80
2018-08-19T12:10:02.948Z,19.70
2018-08-19T12:12:47.829Z,19.60
2018-08-19T12:15:20.038Z,19.50
2018-08-19T12:17:52.225Z,19.30
2018-08-19T12:20:28.861Z,19.40
2018-08-19T12:23:00.871Z,19.40
2018-08-19T12:25:33.123Z,19.50
2018-08-19T12:28:05.358Z,19.50
2018-08-19T12:30:37.584Z,19.50
2018-08-19T12:33:24.428Z,19.50
2018-08-19T12:35:59.361Z,19.60
2018-08-19T12:38:31.822Z,19.70
2018-08-19T12:41:05.938Z,19.90
2018-08-19T12:43:38.065Z,20.10
2018-08-19T12:46:10.290Z,20.30
2018-08-19T12:48:42.329Z,20.50
2018-08-19T12:51:14.646Z,20.40
2018-08-19T12:53:46.694Z,20.50
2018-08-19T12:56:18.836Z,20.50
2018-08-19T12:58:50.983Z,20.50
2018-08-19T13:01:23.707Z,20.50
2018-08-19T13:03:55.931Z,20.50
2018-08-19T13:06:27.862Z,20.60
2018-08-19T13:09:00.355Z,21.20
2018-08-19T13:11:32.759Z,21.40
2018-08-19T13:14:05.101Z,21.50
2018-08-19T13:16:37.669Z,21.60
2018-08-19T13:19:09.821Z,21.40
2018-08-19T13:21:41.769Z,21.40
2018-08-19T13:24:14.343Z,21.30
2018-08-19T13:26:46.385Z,21.40
2018-08-19T13:29:18.859Z,21.50
2018-08-19T13:31:50.989Z,21.70
2018-08-19T13:34:23.481Z,21.90
2018-08-19T13:36:56.086Z,22.00
2018-08-19T13:39:28.647Z,21.90
2018-08-19T13:42:00.703Z,21.70
2018-08-19T13:44:33.098Z,21.70
2018-08-19T13:47:05.701Z,21.80
2018-08-19T13:49:37.711Z,21.80
2018-08-19T13:52:09.717Z,22.00
2018-08-19T13:55:01.329Z,22.00
2018-08-19T13:57:33.881Z,22.00
2018-08-19T14:00:06.475Z,22.00
2018-08-19T14:02:38.323Z,21.80
2018-08-19T14:05:10.545Z,21.80
2018-08-19T14:07:42.926Z,21.90
2018-08-19T14:10:16.447Z,21.90
2018-08-19T14:12:48.735Z,22.00
2018-08-19T14:15:20.887Z,21.80
2018-08-19T14:17:53.286Z,21.80
2018-08-19T14:20:25.468Z,21.80
2018-08-19T14:22:57.643Z,21.80
2018-08-19T14:25:29.639Z,21.80
2018-08-19T14:28:01.494Z,22.00
2018-08-19T14:30:34.089Z,22.30
2018-08-19T14:33:06.208Z,22.70
2018-08-19T14:35:38.185Z,23.20
2018-08-19T14:38:10.334Z,23.40
2018-08-19T14:40:42.789Z,23.60
2018-08-19T14:43:15.119Z,23.90
2018-08-19T14:45:47.551Z,24.50
2018-08-19T14:48:20.189Z,24.60
2018-08-19T14:50:52.369Z,25.10
2018-08-19T14:53:24.464Z,25.30
2018-08-19T14:56:06.543Z,25.90
2018-08-19T14:58:38.309Z,26.30
2018-08-19T15:01:10.786Z,26.10
2018-08-19T15:03:45.184Z,25.90
2018-08-19T15:06:15.694Z,25.90
2018-08-19T15:08:45.969Z,25.70
2018-08-19T15:11:18.807Z,25.70
2018-08-19T15:13:50.967Z,25.70
2018-08-19T15:16:23.065Z,25.70
2018-08-19T15:18:55.465Z,25.40
2018-08-19T15:21:31.044Z,25.50
2018-08-19T15:24:03.790Z,25.70
2018-08-19T15:26:36.147Z,26.00
2018-08-19T15:29:09.046Z,26.30
2018-08-19T15:31:49.195Z,26.50
2018-08-19T15:34:25.143Z,26.70
2018-08-19T15:36:58.349Z,26.90
2018-08-19T15:39:30.596Z,26.40
2018-08-19T15:42:05.076Z,26.40
2018-08-19T15:44:37.133Z,26.40
2018-08-19T15:47:10.482Z,26.10
2018-08-19T15:49:42.999Z,26.60
2018-08-19T15:52:15.343Z,26.50
2018-08-19T15:54:53.917Z,26.70
2018-08-19T15:57:26.259Z,27.20
2018-08-19T15:59:59.047Z,27.80
2018-08-19T16:02:29.498Z,27.80
2018-08-19T16:05:04.640Z,28.00
2018-08-19T16:07:35.154Z,28.30
2018-08-19T16:10:05.782Z,28.60
2018-08-19T16:12:41.939Z,28.30
2018-08-19T16:15:18.376Z,28.40
2018-08-19T16:17:50.530Z,28.00
2018-08-19T16:20:23.755Z,27.40
2018-08-19T16:22:56.634Z,27.50
2018-08-19T16:25:29.350Z,28.30
2018-08-19T16:28:01.404Z,28.80
2018-08-19T16:30:33.492Z,29.10
2018-08-19T16:33:06.057Z,28.80
2018-08-19T16:35:38.851Z,29.00
2018-08-19T16:38:10.879Z,28.90
2018-08-19T16:40:46.606Z,29.80
2018-08-19T16:43:19.249Z,30.20
2018-08-19T16:45:51.629Z,30.10
2018-08-19T16:48:23.830Z,29.80
2018-08-19T16:50:55.691Z,29.70
2018-08-19T16:53:28.145Z,29.00
2018-08-19T16:56:00.332Z,30.00
2018-08-19T16:58:33.346Z,30.20
2018-08-19T17:01:05.920Z,30.10
2018-08-19T17:03:41.201Z,29.90
2018-08-19T17:06:19.683Z,30.30
2018-08-19T17:08:51.544Z,29.50
2018-08-19T17:11:24.049Z,30.20
2018-08-19T17:13:56.891Z,30.10
2018-08-19T17:16:28.933Z,29.60
2018-08-19T17:19:02.576Z,30.20
2018-08-19T17:21:35.314Z,29.70
2018-08-19T17:24:07.557Z,30.40
2018-08-19T17:26:39.878Z,30.00
2018-08-19T17:29:22.550Z,30.30
2018-08-19T17:31:54.784Z,30.60
2018-08-19T17:34:26.878Z,31.10
2018-08-19T17:36:59.117Z,31.30
2018-08-19T17:39:33.255Z,31.90
2018-08-19T17:42:06.403Z,30.80
2018-08-19T17:44:38.942Z,31.30
2018-08-19T17:47:11.197Z,31.90
2018-08-19T17:49:43.467Z,32.30
2018-08-19T17:52:15.584Z,32.70
2018-08-19T17:54:48.455Z,32.40
2018-08-19T17:57:20.756Z,32.40
2018-08-19T17:59:54.004Z,32.30
2018-08-19T18:02:26.262Z,31.70
2018-08-19T18:04:59.546Z,31.50
2018-08-19T18:07:31.543Z,31.90
2018-08-19T18:10:03.837Z,32.30
2018-08-19T18:12:35.978Z,32.00
2018-08-19T18:15:08.964Z,32.20
2018-08-19T18:17:42.791Z,32.30
2018-08-19T18:20:26.670Z,32.60
2018-08-19T18:22:59.746Z,32.90
2018-08-19T18:25:31.775Z,32.90
2018-08-19T18:28:13.133Z,32.50
2018-08-19T18:30:46.147Z,32.80
2018-08-19T18:33:18.505Z,32.30
2018-08-19T18:35:50.633Z,31.90
2018-08-19T18:38:28.240Z,31.60
2018-08-19T18:41:00.432Z,31.50
2018-08-19T18:43:32.826Z,31.20
2018-08-19T18:46:05.145Z,32.00
2018-08-19T18:48:37.095Z,32.10
2018-08-19T18:51:08.964Z,32.30
2018-08-19T18:53:42.358Z,33.00
2018-08-19T18:56:14.342Z,32.60
2018-08-19T18:58:47.844Z,32.70
2018-08-19T19:01:20.047Z,32.60
2018-08-19T19:03:52.415Z,33.00
2018-08-19T19:06:24.443Z,33.60
2018-08-19T19:08:57.525Z,33.60
2018-08-19T19:11:29.280Z,33.60
2018-08-19T19:14:00.947Z,33.90
2018-08-19T19:16:42.731Z,33.60
2018-08-19T19:19:16.551Z,34.10
2018-08-19T19:21:51.604Z,33.90
2018-08-19T19:24:25.949Z,33.20
2018-08-19T19:26:56.570Z,33.00
2018-08-19T19:29:29.096Z,33.50
2018-08-19T19:32:09.182Z,33.90
2018-08-19T19:34:40.201Z,34.30
2018-08-19T19:37:10.623Z,34.00
2018-08-19T19:39:41.293Z,33.70
2018-08-19T19:42:13.622Z,33.30
2018-08-19T19:44:44.541Z,33.60
2018-08-19T19:47:14.967Z,33.80
2018-08-19T19:49:59.785Z,33.60
2018-08-19T19:52:31.033Z,33.60
2018-08-19T19:55:01.701Z,33.40
2018-08-19T19:57:32.577Z,33.90
2018-08-19T20:00:08.759Z,34.30
2018-08-19T20:02:39.168Z,34.50
2018-08-19T20:05:14.391Z,33.80
2018-08-19T20:07:44.961Z,34.30
2018-08-19T20:10:33.271Z,33.90
2018-08-19T20:13:05.537Z,34.10
2018-08-19T20:15:35.937Z,34.60
2018-08-19T20:18:08.587Z,34.30
2018-08-19T20:20:40.785Z,34.00
2018-08-19T20:23:26.870Z,33.60
2018-08-19T20:25:57.632Z,33.40
2018-08-19T20:28:29.812Z,33.10
2018-08-19T20:31:00.883Z,33.60
2018-08-19T20:33:31.858Z,33.00
2018-08-19T20:36:02.331Z,33.30
2018-08-19T20:38:32.724Z,33.10
2018-08-19T20:41:03.181Z,32.90
2018-08-19T20:43:33.686Z,33.20
2018-08-19T20:46:06.241Z,33.10
2018-08-19T20:48:39.953Z,32.60
2018-08-19T20:51:12.435Z,32.80
2018-08-19T20:53:45.179Z,33.00
2018-08-19T20:56:17.605Z,32.30
2018-08-19T20:58:49.971Z,33.00
2018-08-19T21:01:29.599Z,33.00
2018-08-19T21:04:02.347Z,33.00
2018-08-19T21:06:35.490Z,32.40
2018-08-19T21:09:08.175Z,32.80
2018-08-19T21:11:41.876Z,32.70
2018-08-19T21:14:14.166Z,32.90
2018-08-19T21:16:46.411Z,32.90
2018-08-19T21:19:19.322Z,32.70
2018-08-19T21:21:51.798Z,31.70
2018-08-19T21:24:24.922Z,31.60
2018-08-19T21:27:01.877Z,31.80
2018-08-19T21:29:34.527Z,31.90
2018-08-19T21:32:06.530Z,32.70
2018-08-19T21:34:38.836Z,33.20
2018-08-19T21:37:10.936Z,33.50
2018-08-19T21:39:43.945Z,33.60
2018-08-19T21:42:16.111Z,33.70
2018-08-19T21:44:48.057Z,33.20
2018-08-19T21:47:20.588Z,33.60
2018-08-19T21:49:56.529Z,34.10
2018-08-19T21:52:28.772Z,33.60
2018-08-19T21:55:00.653Z,33.10
2018-08-19T21:57:32.777Z,32.90
2018-08-19T22:00:05.165Z,32.70
2018-08-19T22:02:41.630Z,32.10
2018-08-19T22:05:13.928Z,31.50
2018-08-19T22:07:45.238Z,31.70
2018-08-19T22:10:15.650Z,31.60
2018-08-19T22:12:50.045Z,31.30
2018-08-19T22:15:23.371Z,32.30
2018-08-19T22:17:54.567Z,32.60
2018-08-19T22:20:24.962Z,32.30
2018-08-19T22:22:56.046Z,31.50
2018-08-19T22:25:26.713Z,30.40
2018-08-19T22:27:57.314Z,30.30
2018-08-19T22:30:28.961Z,30.60
2018-08-19T22:32:59.826Z,30.30
2018-08-19T22:35:32.624Z,29.40
2018-08-19T22:38:06.235Z,29.20
2018-08-19T22:40:38.749Z,29.50
2018-08-19T22:43:10.081Z,29.20
2018-08-19T22:45:40.549Z,28.60
2018-08-19T22:48:11.510Z,27.90
2018-08-19T22:50:41.897Z,27.60
2018-08-19T22:53:13.276Z,27.50
2018-08-19T22:55:43.931Z,27.80
2018-08-19T22:58:15.435Z,27.90
2018-08-19T23:00:46.058Z,27.60
2018-08-19T23:03:16.624Z,27.70
2018-08-19T23:05:48.718Z,27.80
2018-08-19T23:08:25.005Z,27.70
2018-08-19T23:10:58.490Z,27.80
2018-08-19T23:13:41.041Z,27.80
2018-08-19T23:16:12.945Z,27.50
2018-08-19T23:18:44.389Z,27.30
2018-08-19T23:21:14.852Z,27.00
2018-08-19T23:23:45.379Z,26.30
2018-08-19T23:26:15.689Z,26.20
2018-08-19T23:28:46.304Z,25.90
2018-08-19T23:31:16.685Z,26.10
2018-08-19T23:33:47.005Z,26.10
2018-08-19T23:36:17.240Z,25.80
2018-08-19T23:38:47.720Z,25.50
2018-08-19T23:41:18.089Z,25.40
2018-08-19T23:43:48.602Z,25.50
2018-08-19T23:46:18.936Z,25.80
2018-08-19T23:48:49.824Z,25.80
2018-08-19T23:51:25.476Z,25.70
2018-08-19T23:53:56.089Z,25.30
2018-08-19T23:56:26.577Z,25.10
2018-08-19T23:58:57.077Z,25.00
